Time;durP1;ratioP1;P1;durP2;ratioP2;P2;SDS_P1;SDS_P2;PMS_P1;PMS_P2;Temp;Humidity;BMP_temperature;BMP_pressure;BME280_temperature;BME280_humidity;BME280_pressure;Samples;Min_cycle;Max_cycle;Signal;HPM_P1;HPM_P2
2021/12/08 00:00:18;;;;;;;3.20;2.40;;;;;;;;;;5026892;28;20183;-45
2021/12/08 00:02:44;;;;;;;3.00;2.25;;;;;;;;;;5027936;28;20179;-45
2021/12/08 00:05:11;;;;;;;3.10;2.42;;;;;;;;;;5022865;28;20215;-45
2021/12/08 00:07:37;;;;;;;3.00;2.60;;;;;;;;;;5033571;28;20175;-45
2021/12/08 00:10:27;;;;;;;3.85;2.90;;;;;;;;;;5027531;28;20361;-45
2021/12/08 00:15:28;;;;;;;2.80;2.17;;;;;;;;;;5029443;28;20237;-45
2021/12/08 00:17:56;;;;;;;2.90;2.45;;;;;;;;;;5028237;28;20191;-45
2021/12/08 00:20:22;;;;;;;3.53;2.67;;;;;;;;;;5030730;28;20183;-45
2021/12/08 00:22:48;;;;;;;2.88;2.58;;;;;;;;;;5032117;28;20873;-45
2021/12/08 00:25:14;;;;;;;3.63;2.80;;;;;;;;;;5026144;28;20213;-45
2021/12/08 00:27:40;;;;;;;2.72;2.42;;;;;;;;;;5030645;28;20192;-46
2021/12/08 00:30:06;;;;;;;3.08;2.40;;;;;;;;;;5031264;28;20651;-46
2021/12/08 00:32:35;;;;;;;2.85;2.42;;;;;;;;;;5028059;28;20192;-46
2021/12/08 00:35:01;;;;;;;3.83;2.50;;;;;;;;;;5024910;28;20180;-46
2021/12/08 00:37:28;;;;;;;3.30;2.70;;;;;;;;;;5032998;28;20172;-46
2021/12/08 00:39:54;;;;;;;3.78;2.28;;;;;;;;;;5029506;28;20579;-46
2021/12/08 00:42:20;;;;;;;3.05;2.63;;;;;;;;;;5028309;28;20191;-46
2021/12/08 00:44:46;;;;;;;2.67;2.20;;;;;;;;;;5031935;28;20544;-46
2021/12/08 00:47:12;;;;;;;3.40;2.53;;;;;;;;;;5032543;28;20216;-45
2021/12/08 00:49:39;;;;;;;2.97;2.22;;;;;;;;;;5032359;28;20183;-45
2021/12/08 00:52:06;;;;;;;2.78;2.42;;;;;;;;;;5030570;28;20183;-45
2021/12/08 00:54:32;;;;;;;3.72;2.58;;;;;;;;;;5030656;28;20218;-45
2021/12/08 00:56:58;;;;;;;2.78;2.40;;;;;;;;;;5031753;28;20613;-46
2021/12/08 00:59:24;;;;;;;4.05;2.17;;;;;;;;;;5030751;28;20230;-46
2021/12/08 01:01:50;;;;;;;3.42;2.30;;;;;;;;;;5029253;28;20268;-46
2021/12/08 01:04:16;;;;;;;2.45;2.13;;;;;;;;;;5028066;28;20183;-46
2021/12/08 01:06:43;;;;;;;3.65;2.47;;;;;;;;;;5029256;28;20223;-46
2021/12/08 01:09:10;;;;;;;2.80;2.10;;;;;;;;;;5032318;28;20723;-46
2021/12/08 01:11:36;;;;;;;4.40;2.60;;;;;;;;;;5033946;28;20176;-45
2021/12/08 01:14:03;;;;;;;2.80;2.30;;;;;;;;;;5033096;28;20184;-46
2021/12/08 01:16:28;;;;;;;3.53;2.05;;;;;;;;;;5023419;28;20181;-46
2021/12/08 01:18:54;;;;;;;3.00;2.38;;;;;;;;;;5030529;28;20562;-46
2021/12/08 01:21:21;;;;;;;2.03;1.77;;;;;;;;;;5032722;28;20185;-46
2021/12/08 01:23:47;;;;;;;2.30;2.10;;;;;;;;;;5035295;28;20187;-46
2021/12/08 01:26:13;;;;;;;2.60;2.30;;;;;;;;;;5031710;28;20212;-45
2021/12/08 01:28:39;;;;;;;2.53;1.92;;;;;;;;;;5035360;28;20194;-45
2021/12/08 01:31:06;;;;;;;2.75;1.90;;;;;;;;;;5031562;28;20565;-45
2021/12/08 01:33:33;;;;;;;2.63;1.90;;;;;;;;;;5028877;28;20258;-45
2021/12/08 01:36:02;;;;;;;2.85;2.10;;;;;;;;;;5030352;28;20194;-45
2021/12/08 01:38:28;;;;;;;2.97;2.03;;;;;;;;;;5035909;28;20184;-45
2021/12/08 01:40:54;;;;;;;1.90;1.67;;;;;;;;;;5030552;28;20195;-45
2021/12/08 01:43:29;;;;;;;2.38;2.00;;;;;;;;;;5034449;28;20214;-45
2021/12/08 01:46:02;;;;;;;2.10;1.90;;;;;;;;;;5025835;28;20594;-46
2021/12/08 01:48:30;;;;;;;3.03;1.80;;;;;;;;;;5034367;28;20184;-46
2021/12/08 01:50:58;;;;;;;2.30;2.10;;;;;;;;;;5033808;28;20191;-46
2021/12/08 01:53:24;;;;;;;2.17;1.98;;;;;;;;;;5031367;28;20717;-46
2021/12/08 01:55:50;;;;;;;2.67;1.90;;;;;;;;;;5025534;28;20187;-46
2021/12/08 01:58:17;;;;;;;2.45;1.83;;;;;;;;;;5036075;28;20179;-46
2021/12/08 02:00:54;;;;;;;2.28;1.65;;;;;;;;;;5032249;28;20317;-46
2021/12/08 02:03:21;;;;;;;2.40;1.77;;;;;;;;;;5027973;28;20194;-46
2021/12/08 02:05:47;;;;;;;2.25;1.85;;;;;;;;;;5024992;28;20215;-46
2021/12/08 02:08:13;;;;;;;2.10;1.90;;;;;;;;;;5035467;28;20212;-46
2021/12/08 02:10:40;;;;;;;2.85;1.88;;;;;;;;;;5027204;28;20618;-46
2021/12/08 02:13:07;;;;;;;1.52;1.42;;;;;;;;;;5031840;28;20283;-46
2021/12/08 02:15:34;;;;;;;2.47;1.85;;;;;;;;;;5031962;28;20188;-46
2021/12/08 02:18:00;;;;;;;2.15;1.60;;;;;;;;;;5034281;28;20180;-46
2021/12/08 02:20:27;;;;;;;1.88;1.52;;;;;;;;;;5032075;28;20206;-46
2021/12/08 02:22:53;;;;;;;2.17;1.60;;;;;;;;;;5027195;28;20270;-46
2021/12/08 02:25:21;;;;;;;1.95;1.70;;;;;;;;;;5029770;28;20188;-46
2021/12/08 02:27:47;;;;;;;1.65;1.52;;;;;;;;;;5028221;28;20180;-46
2021/12/08 02:30:21;;;;;;;2.22;1.55;;;;;;;;;;5033549;28;20184;-46
2021/12/08 02:46:46;;;;;;;1.33;1.13;;;;;;;;;;5032364;28;20257;-46
2021/12/08 02:49:13;;;;;;;2.17;1.63;;;;;;;;;;5027576;28;20176;-46
2021/12/08 02:51:39;;;;;;;2.03;1.70;;;;;;;;;;5026181;28;20295;-46
2021/12/08 02:54:05;;;;;;;2.20;1.40;;;;;;;;;;5031783;28;20206;-46
2021/12/08 02:56:32;;;;;;;1.75;1.50;;;;;;;;;;5032867;28;20187;-46
2021/12/08 02:58:58;;;;;;;2.25;1.55;;;;;;;;;;5032764;28;20249;-46
2021/12/08 03:01:25;;;;;;;1.20;1.10;;;;;;;;;;5025063;28;20497;-45
2021/12/08 03:03:51;;;;;;;1.35;1.25;;;;;;;;;;5030345;28;20202;-45
2021/12/08 03:06:17;;;;;;;1.40;1.20;;;;;;;;;;5031630;28;20209;-45
2021/12/08 03:08:43;;;;;;;1.02;1.00;;;;;;;;;;5023106;28;20198;-46
2021/12/08 03:11:10;;;;;;;1.35;1.20;;;;;;;;;;5033993;28;20187;-46
2021/12/08 03:13:39;;;;;;;1.25;1.15;;;;;;;;;;5029917;28;20194;-46
2021/12/08 03:16:06;;;;;;;1.30;1.20;;;;;;;;;;5031939;28;20187;-46
2021/12/08 03:18:35;;;;;;;1.35;1.13;;;;;;;;;;5031650;28;20211;-46
2021/12/08 03:21:01;;;;;;;2.10;1.30;;;;;;;;;;5026068;28;20183;-46
2021/12/08 03:23:47;;;;;;;1.40;1.30;;;;;;;;;;5033120;28;20283;-46
2021/12/08 03:26:13;;;;;;;1.15;1.02;;;;;;;;;;5022854;28;20291;-46
2021/12/08 03:28:47;;;;;;;1.85;1.27;;;;;;;;;;5022315;28;20183;-46
2021/12/08 03:31:17;;;;;;;1.30;1.20;;;;;;;;;;5030229;28;20191;-46
2021/12/08 03:33:45;;;;;;;0.98;0.93;;;;;;;;;;5028117;28;20238;-46
2021/12/08 03:36:11;;;;;;;1.58;1.23;;;;;;;;;;5029543;28;20179;-46
2021/12/08 03:38:39;;;;;;;1.65;1.23;;;;;;;;;;5028588;28;20195;-46
2021/12/08 03:41:07;;;;;;;1.70;1.30;;;;;;;;;;5029055;28;20218;-46
2021/12/08 03:43:33;;;;;;;0.93;0.93;;;;;;;;;;5028871;28;20286;-46
2021/12/08 03:45:59;;;;;;;1.30;1.20;;;;;;;;;;5031018;28;20290;-46
2021/12/08 03:48:30;;;;;;;1.33;1.23;;;;;;;;;;5028326;28;20180;-46
2021/12/08 03:50:57;;;;;;;1.58;1.23;;;;;;;;;;5031323;28;20176;-46
2021/12/08 03:53:23;;;;;;;2.05;1.35;;;;;;;;;;5031043;28;20283;-46
2021/12/08 03:55:51;;;;;;;1.30;1.15;;;;;;;;;;5027978;28;20219;-46
2021/12/08 03:58:18;;;;;;;1.75;1.42;;;;;;;;;;5031307;28;20218;-46
2021/12/08 04:00:45;;;;;;;1.45;1.30;;;;;;;;;;5028196;28;20235;-46
2021/12/08 04:03:12;;;;;;;1.20;1.10;;;;;;;;;;5029145;28;20626;-46
2021/12/08 04:06:03;;;;;;;1.33;1.23;;;;;;;;;;5030682;28;20535;-45
2021/12/08 04:09:05;;;;;;;1.17;1.08;;;;;;;;;;5032301;28;20190;-45
2021/12/08 04:11:20;;;;;;;1.20;1.10;;;;;;;;;;5028086;28;20241;-45
2021/12/08 04:13:49;;;;;;;1.10;1.00;;;;;;;;;;5030155;28;20274;-45
2021/12/08 04:16:28;;;;;;;1.08;1.02;;;;;;;;;;5028293;28;20188;-45
2021/12/08 04:18:55;;;;;;;1.08;1.00;;;;;;;;;;5030002;28;20507;-45
2021/12/08 04:21:21;;;;;;;1.50;1.30;;;;;;;;;;5032816;28;20187;-45
2021/12/08 04:23:47;;;;;;;1.17;1.08;;;;;;;;;;5027261;28;20545;-46
2021/12/08 04:26:19;;;;;;;1.20;1.10;;;;;;;;;;5027981;28;20782;-46
2021/12/08 04:28:45;;;;;;;1.30;1.20;;;;;;;;;;5020585;28;20190;-46
2021/12/08 04:31:19;;;;;;;1.35;1.25;;;;;;;;;;5027259;28;20179;-46
2021/12/08 04:33:46;;;;;;;1.20;1.10;;;;;;;;;;5025337;28;20187;-46
2021/12/08 04:36:15;;;;;;;1.35;1.23;;;;;;;;;;5025120;28;20315;-46
2021/12/08 04:38:45;;;;;;;1.80;1.35;;;;;;;;;;5023947;28;20183;-46
2021/12/08 04:41:14;;;;;;;1.20;1.10;;;;;;;;;;5029931;28;20233;-46
2021/12/08 04:43:50;;;;;;;1.48;1.30;;;;;;;;;;5028654;28;20191;-46
2021/12/08 04:49:23;;;;;;;1.63;1.38;;;;;;;;;;5029086;28;20229;-46
2021/12/08 05:08:14;;;;;;;2.03;1.50;;;;;;;;;;5030056;28;20548;-46
2021/12/08 05:10:36;;;;;;;1.30;1.20;;;;;;;;;;5034200;28;20234;-45
2021/12/08 05:13:04;;;;;;;2.83;1.55;;;;;;;;;;5035916;28;20203;-45
2021/12/08 05:15:33;;;;;;;2.50;1.50;;;;;;;;;;5031103;28;20187;-45
2021/12/08 05:18:19;;;;;;;1.75;1.48;;;;;;;;;;5034397;28;20283;-45
2021/12/08 05:20:50;;;;;;;4.55;1.45;;;;;;;;;;5024264;28;20195;-46
2021/12/08 05:23:22;;;;;;;1.30;1.20;;;;;;;;;;5035626;28;20176;-46
2021/12/08 05:25:48;;;;;;;1.70;1.52;;;;;;;;;;5034818;28;20591;-45
2021/12/08 05:28:18;;;;;;;2.72;1.48;;;;;;;;;;5028480;28;20189;-45
2021/12/08 05:30:47;;;;;;;1.63;1.40;;;;;;;;;;5027944;28;20254;-45
2021/12/08 05:33:14;;;;;;;1.77;1.30;;;;;;;;;;5033433;28;20589;-46
2021/12/08 05:35:42;;;;;;;1.75;1.23;;;;;;;;;;5021431;28;20273;-46
2021/12/08 05:38:09;;;;;;;1.90;1.42;;;;;;;;;;5026362;28;20186;-46
2021/12/08 05:40:39;;;;;;;1.40;1.30;;;;;;;;;;5024548;28;20188;-46
2021/12/08 05:43:06;;;;;;;1.73;1.52;;;;;;;;;;5024660;28;20226;-46
2021/12/08 05:45:32;;;;;;;1.60;1.30;;;;;;;;;;5024998;28;20215;-46
2021/12/08 05:47:58;;;;;;;1.85;1.63;;;;;;;;;;5025247;28;20230;-46
2021/12/08 05:50:44;;;;;;;2.00;1.50;;;;;;;;;;5023206;28;20223;-46
2021/12/08 05:53:11;;;;;;;1.45;1.35;;;;;;;;;;5025884;28;20222;-46
2021/12/08 05:55:37;;;;;;;2.45;1.58;;;;;;;;;;5021930;28;20532;-46
2021/12/08 05:58:04;;;;;;;1.77;1.50;;;;;;;;;;5019608;28;20192;-46
2021/12/08 06:00:33;;;;;;;1.63;1.30;;;;;;;;;;5021935;28;20263;-46
2021/12/08 06:02:59;;;;;;;2.15;1.60;;;;;;;;;;5022611;28;20188;-46
2021/12/08 06:05:27;;;;;;;5.10;3.33;;;;;;;;;;5018318;28;20200;-46
2021/12/08 06:07:53;;;;;;;58.15;41.20;;;;;;;;;;5031045;28;20184;-45
2021/12/08 06:10:29;;;;;;;167.52;123.03;;;;;;;;;;5023207;28;20509;-46
2021/12/08 06:12:56;;;;;;;227.93;162.40;;;;;;;;;;5015709;28;20255;-46
2021/12/08 06:15:22;;;;;;;269.55;188.88;;;;;;;;;;5015089;28;20192;-47
2021/12/08 06:17:48;;;;;;;528.83;375.33;;;;;;;;;;5033715;28;20215;-46
2021/12/08 06:20:15;;;;;;;504.20;345.60;;;;;;;;;;5030444;28;20496;-45
2021/12/08 06:22:42;;;;;;;475.60;322.23;;;;;;;;;;5023361;28;20506;-48
2021/12/08 06:25:08;;;;;;;437.63;285.90;;;;;;;;;;5026440;28;20238;-47
2021/12/08 06:27:34;;;;;;;396.45;248.93;;;;;;;;;;5023900;28;20443;-49
2021/12/08 06:30:01;;;;;;;376.38;231.30;;;;;;;;;;5024614;28;20214;-45
2021/12/08 06:32:27;;;;;;;363.63;221.23;;;;;;;;;;5029766;28;20253;-44
2021/12/08 06:34:56;;;;;;;336.77;207.02;;;;;;;;;;5030686;28;20184;-45
2021/12/08 06:37:30;;;;;;;305.25;182.55;;;;;;;;;;5033687;28;20190;-46
2021/12/08 06:40:02;;;;;;;264.02;159.65;;;;;;;;;;5029080;28;20579;-44
2021/12/08 06:42:30;;;;;;;258.40;150.80;;;;;;;;;;5030230;28;20238;-42
2021/12/08 06:44:56;;;;;;;218.43;127.93;;;;;;;;;;5025319;28;20206;-42
2021/12/08 06:47:25;;;;;;;209.05;123.78;;;;;;;;;;5028245;28;20238;-46
2021/12/08 06:49:53;;;;;;;165.18;95.63;;;;;;;;;;5019455;28;20270;-47
2021/12/08 06:52:21;;;;;;;159.60;96.68;;;;;;;;;;5028567;28;20195;-46
2021/12/08 06:54:59;;;;;;;151.07;88.72;;;;;;;;;;5015032;28;20260;-46
2021/12/08 06:57:33;;;;;;;133.00;78.95;;;;;;;;;;5030387;28;20198;-46
2021/12/08 07:05:27;;;;;;;105.10;59.88;;;;;;;;;;5023949;28;20195;-46
2021/12/08 07:07:54;;;;;;;94.35;51.53;;;;;;;;;;5028232;28;20317;-46
2021/12/08 07:10:22;;;;;;;85.82;49.25;;;;;;;;;;5026145;28;20183;-46
2021/12/08 07:12:51;;;;;;;87.80;48.92;;;;;;;;;;5027844;28;20188;-46
2021/12/08 07:15:29;;;;;;;74.63;43.25;;;;;;;;;;5021616;28;20206;-46
2021/12/08 07:17:56;;;;;;;66.05;40.90;;;;;;;;;;5031559;28;21677;-46
2021/12/08 07:23:28;;;;;;;65.82;38.17;;;;;;;;;;5029927;28;20274;-49
2021/12/08 07:25:56;;;;;;;93.47;49.83;;;;;;;;;;5027639;28;20741;-46
2021/12/08 07:28:23;;;;;;;93.85;49.20;;;;;;;;;;5028686;28;20219;-50
2021/12/08 07:30:50;;;;;;;89.15;48.00;;;;;;;;;;5026223;28;20180;-44
2021/12/08 07:33:16;;;;;;;79.78;45.03;;;;;;;;;;5030557;28;20263;-46
2021/12/08 07:35:47;;;;;;;92.07;46.28;;;;;;;;;;5013521;28;20333;-45
2021/12/08 07:38:16;;;;;;;80.35;44.25;;;;;;;;;;5017336;28;20191;-46
2021/12/08 07:40:45;;;;;;;91.47;46.95;;;;;;;;;;5018113;28;20196;-52
2021/12/08 07:43:13;;;;;;;81.57;42.70;;;;;;;;;;5023022;28;20616;-49
2021/12/08 07:45:51;;;;;;;81.55;44.75;;;;;;;;;;5017408;28;20207;-47
2021/12/08 07:48:24;;;;;;;89.85;43.88;;;;;;;;;;5023072;28;20225;-49
2021/12/08 07:50:57;;;;;;;84.43;44.05;;;;;;;;;;5023274;28;20566;-60
2021/12/08 07:53:25;;;;;;;81.75;42.33;;;;;;;;;;5026112;28;20458;-45
2021/12/08 07:55:56;;;;;;;70.70;40.03;;;;;;;;;;5025575;28;20278;-43
2021/12/08 07:58:22;;;;;;;80.53;41.15;;;;;;;;;;5018734;28;20322;-46
2021/12/08 08:01:00;;;;;;;76.13;39.30;;;;;;;;;;5024671;28;20602;-46
2021/12/08 08:03:28;;;;;;;78.07;40.50;;;;;;;;;;5025146;28;20196;-45
2021/12/08 08:05:56;;;;;;;73.05;40.83;;;;;;;;;;5017676;28;20218;-45
2021/12/08 08:08:25;;;;;;;72.55;39.47;;;;;;;;;;5012732;28;20184;-45
2021/12/08 08:10:58;;;;;;;67.15;38.67;;;;;;;;;;5025050;28;20180;-46
2021/12/08 08:13:25;;;;;;;67.55;38.00;;;;;;;;;;5022315;28;20238;-46
2021/12/08 08:15:53;;;;;;;66.60;35.05;;;;;;;;;;5033161;28;20838;-46
2021/12/08 08:18:24;;;;;;;64.68;34.83;;;;;;;;;;5032629;28;20207;-46
2021/12/08 08:20:52;;;;;;;67.15;35.35;;;;;;;;;;5032770;28;20286;-46
2021/12/08 08:23:20;;;;;;;59.42;33.75;;;;;;;;;;5022485;28;20208;-46
2021/12/08 08:25:46;;;;;;;61.25;34.20;;;;;;;;;;5021814;28;20208;-46
2021/12/08 08:28:13;;;;;;;58.75;32.47;;;;;;;;;;5027098;28;20298;-45
2021/12/08 08:30:41;;;;;;;55.22;31.75;;;;;;;;;;5021320;28;20556;-45
2021/12/08 08:33:08;;;;;;;57.80;32.58;;;;;;;;;;5024979;28;20175;-45
2021/12/08 08:35:36;;;;;;;56.22;31.40;;;;;;;;;;5025663;28;20188;-45
2021/12/08 08:38:06;;;;;;;55.55;29.63;;;;;;;;;;5018711;28;20180;-46
2021/12/08 08:40:35;;;;;;;58.08;31.98;;;;;;;;;;5024712;28;20177;-46
2021/12/08 08:43:01;;;;;;;59.63;29.70;;;;;;;;;;5027794;28;20196;-46
2021/12/08 08:45:30;;;;;;;51.30;30.02;;;;;;;;;;5024420;28;20265;-46
2021/12/08 08:47:59;;;;;;;54.80;30.50;;;;;;;;;;5015804;28;20188;-46
2021/12/08 08:50:35;;;;;;;52.22;28.55;;;;;;;;;;5026238;28;20582;-46
2021/12/08 08:53:03;;;;;;;51.08;29.10;;;;;;;;;;5018426;28;20283;-47
2021/12/08 08:55:32;;;;;;;51.15;29.40;;;;;;;;;;5016579;28;20255;-46
2021/12/08 08:58:00;;;;;;;42.30;27.00;;;;;;;;;;5021317;28;20564;-46
2021/12/08 09:00:32;;;;;;;44.13;28.40;;;;;;;;;;5026628;28;20240;-46
2021/12/08 09:03:03;;;;;;;39.10;24.42;;;;;;;;;;5019966;28;20187;-46
2021/12/08 09:05:33;;;;;;;40.22;24.40;;;;;;;;;;5013563;28;20184;-46
2021/12/08 09:08:00;;;;;;;44.00;26.65;;;;;;;;;;5029552;28;20905;-46
2021/12/08 09:10:31;;;;;;;46.67;24.25;;;;;;;;;;5030903;28;20267;-46
2021/12/08 09:12:59;;;;;;;41.13;24.58;;;;;;;;;;5021928;28;20180;-46
2021/12/08 09:15:25;;;;;;;40.63;24.77;;;;;;;;;;5025490;28;20223;-46
2021/12/08 09:17:54;;;;;;;37.22;24.05;;;;;;;;;;5024447;28;20533;-46
2021/12/08 09:20:28;;;;;;;38.85;23.98;;;;;;;;;;5029302;28;20835;-46
2021/12/08 09:23:03;;;;;;;35.33;21.73;;;;;;;;;;5024818;28;20184;-46
2021/12/08 09:25:35;;;;;;;34.65;21.35;;;;;;;;;;5032247;28;20690;-46
2021/12/08 09:28:04;;;;;;;37.38;21.92;;;;;;;;;;5027257;28;20183;-46
2021/12/08 09:30:34;;;;;;;34.08;20.70;;;;;;;;;;5030610;28;20191;-46
2021/12/08 09:33:04;;;;;;;35.72;22.15;;;;;;;;;;5032607;28;20610;-46
2021/12/08 09:35:33;;;;;;;35.13;21.63;;;;;;;;;;5030683;28;20188;-46
2021/12/08 09:38:02;;;;;;;32.10;19.20;;;;;;;;;;5031556;28;20184;-46
2021/12/08 09:40:37;;;;;;;33.92;19.75;;;;;;;;;;5036173;28;20175;-42
2021/12/08 09:43:07;;;;;;;41.10;23.67;;;;;;;;;;5031501;28;20215;-46
2021/12/08 09:45:36;;;;;;;221.50;143.43;;;;;;;;;;5026013;28;20225;-48
2021/12/08 09:48:04;;;;;;;361.00;245.07;;;;;;;;;;5032257;28;20201;-47
2021/12/08 09:50:30;;;;;;;443.67;321.13;;;;;;;;;;5029580;28;20185;-46
2021/12/08 09:52:56;;;;;;;462.90;325.80;;;;;;;;;;5031017;28;20215;-44
2021/12/08 09:55:22;;;;;;;767.10;506.95;;;;;;;;;;5035515;28;20253;-48
2021/12/08 09:57:49;;;;;;;737.78;487.25;;;;;;;;;;5032142;28;20230;-48
2021/12/08 10:00:20;;;;;;;655.35;420.10;;;;;;;;;;5029641;28;20192;-44
2021/12/08 10:02:46;;;;;;;625.17;388.83;;;;;;;;;;5029542;28;20232;-47
2021/12/08 10:05:14;;;;;;;574.20;361.67;;;;;;;;;;5029291;28;20768;-42
2021/12/08 10:07:40;;;;;;;542.13;336.25;;;;;;;;;;5033017;28;20264;-48
2021/12/08 10:10:07;;;;;;;519.50;322.58;;;;;;;;;;5050177;28;20183;-43
2021/12/08 10:12:35;;;;;;;487.67;290.85;;;;;;;;;;5025108;28;20204;-45
2021/12/08 10:15:02;;;;;;;459.02;265.85;;;;;;;;;;5023011;28;20172;-50
2021/12/08 10:17:28;;;;;;;436.55;250.30;;;;;;;;;;5019993;28;20208;-46
2021/12/08 10:20:13;;;;;;;399.05;221.77;;;;;;;;;;5019380;28;20179;-47
2021/12/08 10:22:40;;;;;;;369.65;195.43;;;;;;;;;;5015468;28;20192;-47
2021/12/08 10:25:20;;;;;;;348.33;181.75;;;;;;;;;;5013989;28;20180;-48
2021/12/08 10:28:07;;;;;;;299.70;159.50;;;;;;;;;;5027733;28;20198;-47
2021/12/08 10:30:37;;;;;;;262.15;140.07;;;;;;;;;;5013622;28;20542;-47
2021/12/08 10:33:10;;;;;;;254.82;132.82;;;;;;;;;;5020768;28;20222;-45
2021/12/08 10:36:02;;;;;;;233.07;121.18;;;;;;;;;;5018104;28;22629;-45
2021/12/08 10:38:36;;;;;;;212.10;111.93;;;;;;;;;;5017801;28;20610;-46
2021/12/08 10:41:03;;;;;;;185.45;102.05;;;;;;;;;;5016142;28;20212;-50
2021/12/08 10:43:29;;;;;;;176.57;93.72;;;;;;;;;;5009925;28;20192;-50
2021/12/08 10:46:04;;;;;;;170.32;92.05;;;;;;;;;;5017269;28;20207;-45
2021/12/08 10:48:37;;;;;;;152.63;81.07;;;;;;;;;;5023393;28;20180;-47
2021/12/08 10:56:34;;;;;;;123.85;65.30;;;;;;;;;;5031495;28;20250;-43
2021/12/08 10:59:00;;;;;;;129.55;70.18;;;;;;;;;;5034630;28;20195;-45
2021/12/08 11:01:27;;;;;;;129.10;70.25;;;;;;;;;;5016260;28;20191;-48
2021/12/08 11:04:00;;;;;;;109.60;59.50;;;;;;;;;;5020163;28;20567;-42
2021/12/08 11:06:29;;;;;;;122.70;63.22;;;;;;;;;;5015220;28;20606;-47
2021/12/08 11:08:56;;;;;;;109.35;59.88;;;;;;;;;;5017073;28;20246;-46
2021/12/08 11:11:32;;;;;;;113.15;60.35;;;;;;;;;;5016744;28;20578;-46
2021/12/08 11:14:07;;;;;;;104.68;56.47;;;;;;;;;;5012053;28;20254;-47
2021/12/08 11:16:37;;;;;;;104.35;55.78;;;;;;;;;;5016362;28;20180;-47
2021/12/08 11:19:03;;;;;;;104.88;55.03;;;;;;;;;;5015597;28;20192;-47
2021/12/08 11:21:38;;;;;;;95.07;51.30;;;;;;;;;;5016960;28;20582;-43
2021/12/08 11:24:06;;;;;;;91.18;48.88;;;;;;;;;;5012651;28;20185;-42
2021/12/08 11:26:41;;;;;;;96.05;49.33;;;;;;;;;;5012258;28;20243;-43
2021/12/08 11:29:12;;;;;;;95.65;50.47;;;;;;;;;;5013247;28;20491;-44
2021/12/08 11:31:38;;;;;;;86.72;47.22;;;;;;;;;;5021367;28;20233;-45
2021/12/08 11:34:06;;;;;;;78.30;43.22;;;;;;;;;;5021698;28;20204;-48
2021/12/08 11:36:36;;;;;;;79.32;42.50;;;;;;;;;;5014036;28;20196;-48
2021/12/08 11:39:22;;;;;;;76.07;43.38;;;;;;;;;;5027440;28;20197;-49
2021/12/08 11:41:53;;;;;;;67.30;39.38;;;;;;;;;;5015072;28;20274;-48
2021/12/08 11:44:21;;;;;;;71.90;40.03;;;;;;;;;;5022714;28;20199;-47
2021/12/08 11:46:58;;;;;;;63.85;36.17;;;;;;;;;;5021657;28;20219;-48
2021/12/08 11:49:24;;;;;;;61.33;34.25;;;;;;;;;;5017187;28;20191;-48
2021/12/08 11:51:53;;;;;;;54.92;34.78;;;;;;;;;;5022238;28;20190;-42
2021/12/08 11:54:24;;;;;;;56.92;33.47;;;;;;;;;;5018630;28;20228;-43
2021/12/08 11:56:51;;;;;;;53.63;31.95;;;;;;;;;;5015627;28;20194;-48
2021/12/08 11:59:17;;;;;;;56.00;33.05;;;;;;;;;;5015532;28;20188;-48
2021/12/08 12:01:43;;;;;;;53.95;31.83;;;;;;;;;;5014312;28;20184;-49
2021/12/08 12:04:10;;;;;;;52.58;30.45;;;;;;;;;;5016678;28;20527;-48
2021/12/08 12:06:38;;;;;;;49.65;30.50;;;;;;;;;;5014921;28;20203;-41
2021/12/08 12:09:06;;;;;;;52.55;30.65;;;;;;;;;;5013174;28;20172;-42
2021/12/08 12:11:32;;;;;;;50.47;29.38;;;;;;;;;;5020134;28;20286;-45
2021/12/08 12:13:59;;;;;;;51.42;29.52;;;;;;;;;;5013429;28;20188;-46
2021/12/08 12:16:26;;;;;;;47.97;27.90;;;;;;;;;;5010124;28;20184;-45
2021/12/08 12:18:55;;;;;;;52.72;27.40;;;;;;;;;;5013931;28;20188;-46
2021/12/08 12:21:21;;;;;;;48.80;27.08;;;;;;;;;;5022416;28;20230;-47
2021/12/08 12:23:57;;;;;;;44.00;25.65;;;;;;;;;;5021241;28;20272;-45
2021/12/08 12:26:22;;;;;;;41.33;25.13;;;;;;;;;;5015980;28;20249;-44
2021/12/08 12:29:07;;;;;;;42.83;24.48;;;;;;;;;;5022526;28;20277;-44
2021/12/08 12:32:03;;;;;;;39.78;23.40;;;;;;;;;;5019689;28;20234;-49
2021/12/08 12:34:32;;;;;;;42.22;24.83;;;;;;;;;;5011885;28;20216;-44
2021/12/08 12:37:00;;;;;;;39.92;23.08;;;;;;;;;;5011682;28;20185;-46
2021/12/08 12:39:27;;;;;;;34.53;22.00;;;;;;;;;;5016449;28;20184;-42
2021/12/08 12:42:01;;;;;;;37.63;22.60;;;;;;;;;;5024225;28;20187;-46
2021/12/08 12:44:29;;;;;;;36.10;21.63;;;;;;;;;;5011329;28;20189;-45
2021/12/08 12:47:05;;;;;;;38.75;21.13;;;;;;;;;;5025996;28;20770;-48
2021/12/08 12:49:31;;;;;;;36.30;21.85;;;;;;;;;;5018468;28;20215;-43
2021/12/08 12:51:58;;;;;;;34.22;20.63;;;;;;;;;;5021952;28;20495;-47
2021/12/08 12:54:25;;;;;;;36.25;21.67;;;;;;;;;;5013916;28;20212;-46
2021/12/08 12:56:52;;;;;;;32.97;20.13;;;;;;;;;;5023761;28;20195;-44
2021/12/08 12:59:21;;;;;;;42.05;21.10;;;;;;;;;;5026839;28;20207;-44
2021/12/08 13:02:03;;;;;;;35.50;19.35;;;;;;;;;;5026053;28;20299;-47
2021/12/08 13:04:30;;;;;;;36.42;19.77;;;;;;;;;;5019394;28;20519;-42
2021/12/08 13:07:02;;;;;;;33.42;18.80;;;;;;;;;;5019970;28;20243;-46
2021/12/08 13:09:37;;;;;;;51.67;29.52;;;;;;;;;;5019882;28;20204;-41
2021/12/08 13:12:10;;;;;;;47.83;25.10;;;;;;;;;;5019915;28;20583;-44
2021/12/08 13:14:37;;;;;;;47.38;23.67;;;;;;;;;;5016835;28;20176;-41
2021/12/08 13:17:22;;;;;;;36.88;21.75;;;;;;;;;;5015405;28;20193;-45
2021/12/08 13:19:50;;;;;;;77.57;31.65;;;;;;;;;;5015888;28;20286;-45
2021/12/08 13:22:35;;;;;;;63.33;26.65;;;;;;;;;;5020195;28;20486;-45
2021/12/08 13:25:01;;;;;;;55.88;26.20;;;;;;;;;;5030414;28;20274;-45
2021/12/08 13:27:29;;;;;;;51.28;23.42;;;;;;;;;;5031633;28;20222;-45
2021/12/08 13:30:15;;;;;;;45.25;23.13;;;;;;;;;;5026387;28;20536;-45
2021/12/08 13:32:47;;;;;;;45.28;20.25;;;;;;;;;;5022828;28;20226;-45
2021/12/08 13:35:31;;;;;;;38.70;20.05;;;;;;;;;;5019109;28;20211;-45
2021/12/08 13:37:57;;;;;;;38.45;20.08;;;;;;;;;;5029919;28;20187;-45
2021/12/08 13:40:40;;;;;;;35.65;19.48;;;;;;;;;;5023821;28;20182;-45
2021/12/08 13:43:07;;;;;;;34.45;19.42;;;;;;;;;;5016448;28;20188;-45
2021/12/08 13:45:45;;;;;;;34.42;18.88;;;;;;;;;;5019566;28;20200;-45
2021/12/08 13:48:11;;;;;;;32.15;17.20;;;;;;;;;;5018104;28;20180;-46
2021/12/08 13:50:38;;;;;;;29.88;15.52;;;;;;;;;;5017108;28;20203;-45
2021/12/08 13:53:12;;;;;;;30.17;17.33;;;;;;;;;;5022266;28;20187;-45
2021/12/08 13:55:40;;;;;;;26.45;16.40;;;;;;;;;;5015892;28;20302;-45
2021/12/08 13:58:15;;;;;;;28.23;16.80;;;;;;;;;;5018302;28;21303;-45
2021/12/08 14:00:43;;;;;;;29.73;16.48;;;;;;;;;;5015695;28;20192;-45
2021/12/08 14:03:15;;;;;;;26.90;16.25;;;;;;;;;;5014565;28;20188;-44
2021/12/08 14:05:48;;;;;;;25.35;15.80;;;;;;;;;;5016239;28;20595;-45
2021/12/08 14:08:33;;;;;;;31.52;15.48;;;;;;;;;;5015395;28;20189;-45
2021/12/08 14:11:01;;;;;;;26.58;15.68;;;;;;;;;;5023706;28;20175;-45
2021/12/08 14:13:29;;;;;;;25.40;15.35;;;;;;;;;;5019653;28;20227;-45
2021/12/08 14:16:12;;;;;;;25.67;14.52;;;;;;;;;;5014256;28;20190;-45
2021/12/08 14:18:43;;;;;;;22.15;13.82;;;;;;;;;;5015510;28;20177;-45
2021/12/08 14:21:11;;;;;;;21.98;12.95;;;;;;;;;;5019439;28;20184;-45
2021/12/08 14:23:38;;;;;;;22.83;14.07;;;;;;;;;;5012246;28;20184;-45
2021/12/08 14:26:15;;;;;;;21.80;13.85;;;;;;;;;;5021545;28;20211;-45
2021/12/08 14:28:52;;;;;;;24.30;13.38;;;;;;;;;;5017296;28;20436;-44
2021/12/08 14:31:21;;;;;;;24.92;13.98;;;;;;;;;;5018650;28;20179;-45
2021/12/08 14:33:51;;;;;;;20.90;13.35;;;;;;;;;;5015154;28;20184;-45
2021/12/08 14:36:17;;;;;;;22.05;13.75;;;;;;;;;;5016164;28;20253;-45
2021/12/08 14:38:53;;;;;;;22.40;13.13;;;;;;;;;;5013476;28;20198;-45
2021/12/08 14:41:21;;;;;;;21.35;11.82;;;;;;;;;;5030100;28;20275;-45
2021/12/08 14:43:49;;;;;;;18.50;12.40;;;;;;;;;;5014526;28;20192;-45
2021/12/08 14:46:18;;;;;;;16.67;11.40;;;;;;;;;;5016904;28;20200;-45
2021/12/08 14:49:04;;;;;;;18.35;11.10;;;;;;;;;;5011988;28;20183;-45
2021/12/08 14:51:31;;;;;;;18.42;11.63;;;;;;;;;;5020802;28;20215;-45
2021/12/08 14:54:11;;;;;;;22.13;11.35;;;;;;;;;;5017991;28;20184;-45
2021/12/08 14:56:37;;;;;;;18.85;11.30;;;;;;;;;;5015858;28;20187;-45
2021/12/08 14:59:04;;;;;;;17.33;11.48;;;;;;;;;;5014827;28;20208;-45
2021/12/08 15:01:31;;;;;;;19.02;11.77;;;;;;;;;;5018119;28;20203;-45
2021/12/08 15:03:57;;;;;;;18.38;11.52;;;;;;;;;;5029572;28;20185;-45
2021/12/08 15:06:23;;;;;;;15.32;11.07;;;;;;;;;;5014812;28;20224;-45
2021/12/08 15:08:50;;;;;;;16.92;10.63;;;;;;;;;;5030791;28;20563;-45
2021/12/08 15:11:19;;;;;;;18.45;11.05;;;;;;;;;;5027822;28;20267;-45
2021/12/08 15:13:45;;;;;;;18.10;10.90;;;;;;;;;;5015299;28;20195;-45
2021/12/08 15:16:12;;;;;;;15.75;10.32;;;;;;;;;;5015544;28;20258;-45
2021/12/08 15:18:38;;;;;;;15.77;10.35;;;;;;;;;;5015566;28;20551;-44
2021/12/08 15:21:09;;;;;;;17.08;10.60;;;;;;;;;;5012122;28;20230;-44
2021/12/08 15:23:43;;;;;;;14.95;10.05;;;;;;;;;;5014448;28;20440;-45
2021/12/08 15:26:10;;;;;;;15.77;10.57;;;;;;;;;;5015488;28;20231;-45